sensor_id;sensor_type;location;lat;lon;timestamp;pressure;altitude;pressure_sealevel;temperature;humidity
85623;BME280;76049;43.076;25.632;2024-03-17T00:02:22;99827.92;;;8.53;65.73
85623;BME280;76049;43.076;25.632;2024-03-17T00:07:29;99834.15;;;8.58;65.79
85623;BME280;76049;43.076;25.632;2024-03-17T00:12:36;99829.98;;;8.64;65.77
85623;BME280;76049;43.076;25.632;2024-03-17T00:17:43;99829.58;;;8.61;65.81
85623;BME280;76049;43.076;25.632;2024-03-17T00:22:51;99828.96;;;8.46;66.15
85623;BME280;76049;43.076;25.632;2024-03-17T00:27:58;99824.80;;;8.34;66.51
85623;BME280;76049;43.076;25.632;2024-03-17T00:33:05;99825.30;;;8.32;66.79
85623;BME280;76049;43.076;25.632;2024-03-17T00:38:13;99820.39;;;8.33;66.86
85623;BME280;76049;43.076;25.632;2024-03-17T00:43:20;99824.46;;;8.38;66.68
85623;BME280;76049;43.076;25.632;2024-03-17T00:48:35;99824.10;;;8.43;66.67
85623;BME280;76049;43.076;25.632;2024-03-17T00:53:43;99827.23;;;8.42;66.60
85623;BME280;76049;43.076;25.632;2024-03-17T00:58:50;99826.09;;;8.36;66.79
85623;BME280;76049;43.076;25.632;2024-03-17T01:03:58;99826.16;;;8.34;66.85
85623;BME280;76049;43.076;25.632;2024-03-17T01:09:05;99826.91;;;8.29;66.97
85623;BME280;76049;43.076;25.632;2024-03-17T01:14:12;99831.42;;;8.17;67.23
85623;BME280;76049;43.076;25.632;2024-03-17T01:19:19;99831.63;;;8.17;67.19
85623;BME280;76049;43.076;25.632;2024-03-17T01:24:26;99825.88;;;8.22;67.24
85623;BME280;76049;43.076;25.632;2024-03-17T01:29:36;99831.86;;;8.22;67.14
85623;BME280;76049;43.076;25.632;2024-03-17T01:39:43;99815.65;;;8.17;67.26
85623;BME280;76049;43.076;25.632;2024-03-17T01:49:50;99817.23;;;8.16;67.28
85623;BME280;76049;43.076;25.632;2024-03-17T01:59:58;99809.97;;;8.22;67.23
85623;BME280;76049;43.076;25.632;2024-03-17T02:10:07;99815.41;;;8.22;67.15
85623;BME280;76049;43.076;25.632;2024-03-17T02:20:21;99824.11;;;8.09;67.16
85623;BME280;76049;43.076;25.632;2024-03-17T02:25:48;99822.09;;;7.89;67.47
85623;BME280;76049;43.076;25.632;2024-03-17T02:30:54;99822.23;;;7.83;67.57
85623;BME280;76049;43.076;25.632;2024-03-17T02:41:01;99823.26;;;7.77;67.61
85623;BME280;76049;43.076;25.632;2024-03-17T02:51:09;99812.40;;;7.52;67.75
85623;BME280;76049;43.076;25.632;2024-03-17T03:01:16;99817.25;;;7.37;67.92
85623;BME280;76049;43.076;25.632;2024-03-17T03:11:23;99824.13;;;7.33;67.76
85623;BME280;76049;43.076;25.632;2024-03-17T03:21:36;99828.89;;;7.25;67.67
85623;BME280;76049;43.076;25.632;2024-03-17T03:31:42;99832.22;;;7.00;67.30
85623;BME280;76049;43.076;25.632;2024-03-17T03:41:49;99837.95;;;6.88;67.53
85623;BME280;76049;43.076;25.632;2024-03-17T03:46:56;99841.85;;;6.89;67.43
85623;BME280;76049;43.076;25.632;2024-03-17T03:52:04;99847.91;;;6.80;67.35
85623;BME280;76049;43.076;25.632;2024-03-17T04:02:10;99845.23;;;6.63;67.95
85623;BME280;76049;43.076;25.632;2024-03-17T04:12:17;99848.29;;;6.49;68.25
85623;BME280;76049;43.076;25.632;2024-03-17T04:22:31;99854.58;;;6.55;67.78
85623;BME280;76049;43.076;25.632;2024-03-17T04:27:37;99857.63;;;6.53;67.89
85623;BME280;76049;43.076;25.632;2024-03-17T04:32:44;99860.96;;;6.52;67.90
85623;BME280;76049;43.076;25.632;2024-03-17T04:42:52;99873.41;;;6.52;67.64
85623;BME280;76049;43.076;25.632;2024-03-17T04:52:59;99881.87;;;6.54;66.97
85623;BME280;76049;43.076;25.632;2024-03-17T05:03:06;99889.14;;;6.82;66.62
85623;BME280;76049;43.076;25.632;2024-03-17T05:13:13;99892.57;;;7.49;65.67
85623;BME280;76049;43.076;25.632;2024-03-17T05:23:26;99901.80;;;8.39;63.49
85623;BME280;76049;43.076;25.632;2024-03-17T05:33:33;99912.23;;;9.32;61.64
85623;BME280;76049;43.076;25.632;2024-03-17T05:43:40;99922.72;;;10.54;59.19
85623;BME280;76049;43.076;25.632;2024-03-17T05:53:48;99917.16;;;11.75;56.44
85623;BME280;76049;43.076;25.632;2024-03-17T06:04:21;99926.40;;;12.76;54.16
85623;BME280;76049;43.076;25.632;2024-03-17T06:14:29;99936.40;;;13.59;51.91
85623;BME280;76049;43.076;25.632;2024-03-17T06:24:42;99940.35;;;14.27;50.36
85623;BME280;76049;43.076;25.632;2024-03-17T06:34:49;99946.88;;;15.38;48.81
85623;BME280;76049;43.076;25.632;2024-03-17T06:44:56;99947.14;;;16.32;46.56
85623;BME280;76049;43.076;25.632;2024-03-17T06:55:05;99953.24;;;16.85;44.81
85623;BME280;76049;43.076;25.632;2024-03-17T07:05:14;99949.99;;;17.44;43.22
85623;BME280;76049;43.076;25.632;2024-03-17T07:15:21;99953.79;;;17.92;42.25
85623;BME280;76049;43.076;25.632;2024-03-17T07:25:28;99955.34;;;18.61;40.82
85623;BME280;76049;43.076;25.632;2024-03-17T07:30:34;99960.20;;;19.07;39.90
85623;BME280;76049;43.076;25.632;2024-03-17T07:35:49;99961.76;;;19.23;39.22
85623;BME280;76049;43.076;25.632;2024-03-17T07:46:03;99950.74;;;19.53;38.39
85623;BME280;76049;43.076;25.632;2024-03-17T07:56:11;99945.06;;;19.34;37.82
85623;BME280;76049;43.076;25.632;2024-03-17T08:06:19;99929.82;;;19.74;37.51
85623;BME280;76049;43.076;25.632;2024-03-17T08:16:26;99920.97;;;20.24;36.59
85623;BME280;76049;43.076;25.632;2024-03-17T08:26:39;99917.51;;;20.69;35.47
85623;BME280;76049;43.076;25.632;2024-03-17T08:31:46;99912.77;;;20.79;34.85
85623;BME280;76049;43.076;25.632;2024-03-17T08:36:55;99905.45;;;20.73;33.70
85623;BME280;76049;43.076;25.632;2024-03-17T08:47:02;99897.84;;;21.00;32.48
85623;BME280;76049;43.076;25.632;2024-03-17T08:57:09;99892.36;;;21.07;31.26
85623;BME280;76049;43.076;25.632;2024-03-17T09:02:16;99887.91;;;21.10;31.28
85623;BME280;76049;43.076;25.632;2024-03-17T09:07:23;99882.58;;;21.07;31.25
85623;BME280;76049;43.076;25.632;2024-03-17T09:12:29;99880.49;;;21.05;31.31
85623;BME280;76049;43.076;25.632;2024-03-17T09:17:36;99874.67;;;20.85;31.46
85623;BME280;76049;43.076;25.632;2024-03-17T09:27:43;99868.64;;;20.78;31.51
85623;BME280;76049;43.076;25.632;2024-03-17T09:37:49;99860.30;;;20.30;32.31
85623;BME280;76049;43.076;25.632;2024-03-17T09:42:56;99848.91;;;20.12;32.54
85623;BME280;76049;43.076;25.632;2024-03-17T09:48:04;99843.61;;;20.18;32.39
85623;BME280;76049;43.076;25.632;2024-03-17T09:53:15;99843.19;;;20.20;32.18
85623;BME280;76049;43.076;25.632;2024-03-17T09:58:22;99838.90;;;20.21;31.06
85623;BME280;76049;43.076;25.632;2024-03-17T10:08:29;99830.24;;;19.93;30.20
85623;BME280;76049;43.076;25.632;2024-03-17T10:13:37;99823.61;;;19.81;30.24
85623;BME280;76049;43.076;25.632;2024-03-17T10:18:44;99826.83;;;19.87;41.45
85623;BME280;76049;43.076;25.632;2024-03-17T10:28:51;99822.66;;;21.16;48.00
85623;BME280;76049;43.076;25.632;2024-03-17T10:39:05;99819.18;;;21.43;34.33
85623;BME280;76049;43.076;25.632;2024-03-17T10:44:24;99809.41;;;20.96;31.01
85623;BME280;76049;43.076;25.632;2024-03-17T10:49:32;99806.98;;;20.52;31.17
85623;BME280;76049;43.076;25.632;2024-03-17T10:54:39;99805.89;;;20.23;31.00
85623;BME280;76049;43.076;25.632;2024-03-17T10:59:48;99795.65;;;20.01;30.89
85623;BME280;76049;43.076;25.632;2024-03-17T11:09:56;99782.96;;;19.59;31.08
85623;BME280;76049;43.076;25.632;2024-03-17T11:15:40;99784.73;;;19.44;31.00
85623;BME280;76049;43.076;25.632;2024-03-17T11:20:59;99781.73;;;19.33;31.14
85623;BME280;76049;43.076;25.632;2024-03-17T11:31:08;99769.99;;;19.06;30.75
85623;BME280;76049;43.076;25.632;2024-03-17T11:41:42;99757.98;;;18.87;30.28
85623;BME280;76049;43.076;25.632;2024-03-17T11:51:51;99748.55;;;18.79;30.26
85623;BME280;76049;43.076;25.632;2024-03-17T12:01:58;99745.70;;;18.54;30.20
85623;BME280;76049;43.076;25.632;2024-03-17T12:12:08;99734.70;;;18.31;31.16
85623;BME280;76049;43.076;25.632;2024-03-17T12:22:22;99727.33;;;18.30;31.76
85623;BME280;76049;43.076;25.632;2024-03-17T12:32:30;99728.85;;;18.18;31.98
85623;BME280;76049;43.076;25.632;2024-03-17T12:42:37;99722.58;;;18.15;33.29
85623;BME280;76049;43.076;25.632;2024-03-17T12:52:53;99715.39;;;18.89;40.52
85623;BME280;76049;43.076;25.632;2024-03-17T12:58:06;99712.42;;;19.04;39.27
85623;BME280;76049;43.076;25.632;2024-03-17T13:03:37;99710.39;;;19.17;38.65
85623;BME280;76049;43.076;25.632;2024-03-17T13:13:45;99697.69;;;19.10;33.92
85623;BME280;76049;43.076;25.632;2024-03-17T13:22:25;99685.02;;;19.00;31.84
85623;BME280;76049;43.076;25.632;2024-03-17T13:27:33;99683.59;;;18.79;31.44
85623;BME280;76049;43.076;25.632;2024-03-17T13:32:41;99677.60;;;18.63;31.33
85623;BME280;76049;43.076;25.632;2024-03-17T13:37:51;99671.73;;;18.44;30.69
85623;BME280;76049;43.076;25.632;2024-03-17T13:42:59;99667.23;;;18.26;29.92
85623;BME280;76049;43.076;25.632;2024-03-17T13:48:07;99665.38;;;18.15;30.59
85623;BME280;76049;43.076;25.632;2024-03-17T13:53:16;99665.80;;;18.02;31.30
85623;BME280;76049;43.076;25.632;2024-03-17T13:58:24;99662.85;;;17.80;30.62
85623;BME280;76049;43.076;25.632;2024-03-17T14:03:30;99662.00;;;17.64;30.30
85623;BME280;76049;43.076;25.632;2024-03-17T14:08:39;99664.40;;;17.54;30.37
85623;BME280;76049;43.076;25.632;2024-03-17T14:13:46;99666.63;;;17.50;29.92
85623;BME280;76049;43.076;25.632;2024-03-17T14:18:53;99658.88;;;17.48;29.31
85623;BME280;76049;43.076;25.632;2024-03-17T14:24:00;99663.77;;;17.44;29.23
85623;BME280;76049;43.076;25.632;2024-03-17T14:29:12;99657.56;;;17.31;29.83
85623;BME280;76049;43.076;25.632;2024-03-17T14:34:20;99653.70;;;17.17;30.60
85623;BME280;76049;43.076;25.632;2024-03-17T14:39:27;99651.05;;;17.12;31.05
85623;BME280;76049;43.076;25.632;2024-03-17T14:44:35;99640.77;;;17.13;31.06
85623;BME280;76049;43.076;25.632;2024-03-17T14:49:42;99644.02;;;17.09;30.55
85623;BME280;76049;43.076;25.632;2024-03-17T14:54:51;99642.48;;;17.01;30.57
85623;BME280;76049;43.076;25.632;2024-03-17T14:59:59;99644.30;;;16.93;30.59
85623;BME280;76049;43.076;25.632;2024-03-17T15:05:08;99640.24;;;16.86;30.95
85623;BME280;76049;43.076;25.632;2024-03-17T15:10:15;99643.56;;;16.80;31.35
85623;BME280;76049;43.076;25.632;2024-03-17T15:15:25;99645.13;;;16.75;31.45
85623;BME280;76049;43.076;25.632;2024-03-17T15:20:32;99643.66;;;16.70;31.09
85623;BME280;76049;43.076;25.632;2024-03-17T15:25:40;99639.55;;;16.60;30.99
85623;BME280;76049;43.076;25.632;2024-03-17T15:30:47;99644.27;;;16.48;31.32
85623;BME280;76049;43.076;25.632;2024-03-17T15:35:54;99645.67;;;16.35;31.89
85623;BME280;76049;43.076;25.632;2024-03-17T15:41:02;99642.23;;;16.24;32.19
85623;BME280;76049;43.076;25.632;2024-03-17T15:46:17;99638.95;;;16.13;32.24
85623;BME280;76049;43.076;25.632;2024-03-17T15:51:24;99641.15;;;16.02;32.51
85623;BME280;76049;43.076;25.632;2024-03-17T15:56:31;99636.70;;;15.93;32.69
85623;BME280;76049;43.076;25.632;2024-03-17T16:01:38;99637.19;;;15.85;33.01
85623;BME280;76049;43.076;25.632;2024-03-17T16:06:46;99641.09;;;15.76;33.37
85623;BME280;76049;43.076;25.632;2024-03-17T16:11:53;99643.90;;;15.68;33.97
85623;BME280;76049;43.076;25.632;2024-03-17T16:17:00;99643.49;;;15.63;34.52
85623;BME280;76049;43.076;25.632;2024-03-17T16:22:09;99640.34;;;15.57;34.48
85623;BME280;76049;43.076;25.632;2024-03-17T16:27:18;99640.02;;;15.52;34.98
85623;BME280;76049;43.076;25.632;2024-03-17T16:32:25;99640.33;;;15.44;35.16
85623;BME280;76049;43.076;25.632;2024-03-17T16:37:33;99644.97;;;15.35;35.49
85623;BME280;76049;43.076;25.632;2024-03-17T16:42:40;99646.52;;;15.27;36.15
85623;BME280;76049;43.076;25.632;2024-03-17T16:47:47;99648.38;;;15.20;36.75
85623;BME280;76049;43.076;25.632;2024-03-17T16:52:54;99650.35;;;15.14;37.70
85623;BME280;76049;43.076;25.632;2024-03-17T16:58:02;99650.10;;;15.08;37.82
85623;BME280;76049;43.076;25.632;2024-03-17T17:03:09;99653.27;;;14.99;38.05
85623;BME280;76049;43.076;25.632;2024-03-17T17:08:34;99656.59;;;14.90;38.13
85623;BME280;76049;43.076;25.632;2024-03-17T17:13:41;99664.58;;;14.67;38.51
85623;BME280;76049;43.076;25.632;2024-03-17T17:18:54;99667.34;;;14.50;38.64
85623;BME280;76049;43.076;25.632;2024-03-17T17:24:02;99672.02;;;14.36;39.25
85623;BME280;76049;43.076;25.632;2024-03-17T17:29:10;99673.42;;;14.30;39.52
85623;BME280;76049;43.076;25.632;2024-03-17T17:34:17;99676.45;;;14.25;39.52
85623;BME280;76049;43.076;25.632;2024-03-17T17:39:24;99676.06;;;14.19;39.55
85623;BME280;76049;43.076;25.632;2024-03-17T17:49:57;99673.66;;;14.03;40.15
85623;BME280;76049;43.076;25.632;2024-03-17T17:55:08;99672.13;;;13.94;40.52
85623;BME280;76049;43.076;25.632;2024-03-17T18:00:17;99670.21;;;13.84;40.93
85623;BME280;76049;43.076;25.632;2024-03-17T18:05:26;99672.33;;;13.69;41.86
85623;BME280;76049;43.076;25.632;2024-03-17T18:10:38;99671.66;;;13.46;41.94
85623;BME280;76049;43.076;25.632;2024-03-17T18:15:45;99676.35;;;13.08;42.53
85623;BME280;76049;43.076;25.632;2024-03-17T18:20:54;99678.33;;;12.79;42.93
85623;BME280;76049;43.076;25.632;2024-03-17T18:26:06;99678.84;;;12.53;43.89
85623;BME280;76049;43.076;25.632;2024-03-17T18:31:14;99674.14;;;12.33;44.35
85623;BME280;76049;43.076;25.632;2024-03-17T18:36:24;99675.80;;;12.20;44.82
85623;BME280;76049;43.076;25.632;2024-03-17T18:41:31;99667.69;;;12.16;45.23
85623;BME280;76049;43.076;25.632;2024-03-17T18:46:38;99668.23;;;12.11;45.67
85623;BME280;76049;43.076;25.632;2024-03-17T18:51:45;99669.46;;;12.09;46.19
85623;BME280;76049;43.076;25.632;2024-03-17T18:56:52;99667.66;;;12.08;46.50
85623;BME280;76049;43.076;25.632;2024-03-17T19:01:59;99667.73;;;12.10;46.68
85623;BME280;76049;43.076;25.632;2024-03-17T19:07:07;99663.74;;;12.09;47.30
85623;BME280;76049;43.076;25.632;2024-03-17T19:12:15;99662.91;;;12.02;47.34
85623;BME280;76049;43.076;25.632;2024-03-17T19:17:22;99662.04;;;11.89;47.26
85623;BME280;76049;43.076;25.632;2024-03-17T19:22:30;99658.10;;;11.76;47.75
85623;BME280;76049;43.076;25.632;2024-03-17T19:27:40;99651.73;;;11.71;48.07
85623;BME280;76049;43.076;25.632;2024-03-17T19:32:50;99652.59;;;11.75;47.97
85623;BME280;76049;43.076;25.632;2024-03-17T19:37:56;99652.94;;;11.79;48.04
85623;BME280;76049;43.076;25.632;2024-03-17T19:43:03;99656.44;;;11.85;47.96
85623;BME280;76049;43.076;25.632;2024-03-17T19:48:10;99660.67;;;11.88;47.77
85623;BME280;76049;43.076;25.632;2024-03-17T19:53:17;99661.75;;;11.88;48.23
85623;BME280;76049;43.076;25.632;2024-03-17T19:58:24;99661.98;;;11.89;48.60
85623;BME280;76049;43.076;25.632;2024-03-17T20:03:31;99662.64;;;11.90;48.34
85623;BME280;76049;43.076;25.632;2024-03-17T20:08:38;99662.38;;;11.91;48.09
85623;BME280;76049;43.076;25.632;2024-03-17T20:13:47;99661.52;;;11.96;48.64
85623;BME280;76049;43.076;25.632;2024-03-17T20:18:54;99662.52;;;12.00;49.10
85623;BME280;76049;43.076;25.632;2024-03-17T20:24:03;99663.40;;;11.97;49.22
85623;BME280;76049;43.076;25.632;2024-03-17T20:29:11;99659.41;;;11.91;49.80
85623;BME280;76049;43.076;25.632;2024-03-17T20:34:19;99655.84;;;11.84;49.60
85623;BME280;76049;43.076;25.632;2024-03-17T20:46:07;99649.55;;;11.91;49.96
85623;BME280;76049;43.076;25.632;2024-03-17T20:51:16;99651.50;;;11.91;49.99
85623;BME280;76049;43.076;25.632;2024-03-17T20:56:23;99650.33;;;11.94;50.32
85623;BME280;76049;43.076;25.632;2024-03-17T21:01:31;99646.35;;;11.94;50.98
85623;BME280;76049;43.076;25.632;2024-03-17T21:06:38;99643.61;;;11.89;51.61
85623;BME280;76049;43.076;25.632;2024-03-17T21:11:48;99643.83;;;11.80;51.73
85623;BME280;76049;43.076;25.632;2024-03-17T21:16:56;99640.73;;;11.75;51.95
85623;BME280;76049;43.076;25.632;2024-03-17T21:22:03;99639.67;;;11.76;52.26
85623;BME280;76049;43.076;25.632;2024-03-17T21:27:12;99640.82;;;11.76;52.42
85623;BME280;76049;43.076;25.632;2024-03-17T21:32:20;99638.33;;;11.84;52.57
85623;BME280;76049;43.076;25.632;2024-03-17T21:37:27;99638.02;;;11.86;52.43
85623;BME280;76049;43.076;25.632;2024-03-17T21:42:34;99635.19;;;11.89;52.74
85623;BME280;76049;43.076;25.632;2024-03-17T21:47:41;99642.89;;;11.93;52.78
85623;BME280;76049;43.076;25.632;2024-03-17T21:52:49;99643.53;;;11.98;53.06
85623;BME280;76049;43.076;25.632;2024-03-17T21:57:57;99649.65;;;12.02;53.03
85623;BME280;76049;43.076;25.632;2024-03-17T22:03:04;99651.21;;;12.07;53.15
85623;BME280;76049;43.076;25.632;2024-03-17T22:08:13;99648.02;;;12.11;53.35
85623;BME280;76049;43.076;25.632;2024-03-17T22:13:22;99641.91;;;12.16;53.53
85623;BME280;76049;43.076;25.632;2024-03-17T22:18:30;99644.12;;;12.21;53.74
85623;BME280;76049;43.076;25.632;2024-03-17T22:23:37;99644.20;;;12.24;53.61
85623;BME280;76049;43.076;25.632;2024-03-17T22:28:44;99642.88;;;12.26;53.58
85623;BME280;76049;43.076;25.632;2024-03-17T22:33:52;99645.13;;;12.26;53.63
85623;BME280;76049;43.076;25.632;2024-03-17T22:38:58;99641.80;;;12.26;53.82
85623;BME280;76049;43.076;25.632;2024-03-17T22:44:05;99640.16;;;12.24;53.86
85623;BME280;76049;43.076;25.632;2024-03-17T22:49:12;99636.02;;;12.20;54.05
85623;BME280;76049;43.076;25.632;2024-03-17T22:54:22;99630.59;;;12.15;54.24
85623;BME280;76049;43.076;25.632;2024-03-17T22:59:29;99628.14;;;12.07;54.43
85623;BME280;76049;43.076;25.632;2024-03-17T23:04:36;99626.03;;;12.00;54.61
85623;BME280;76049;43.076;25.632;2024-03-17T23:09:43;99621.95;;;11.91;54.71
85623;BME280;76049;43.076;25.632;2024-03-17T23:14:50;99616.27;;;11.81;54.80
85623;BME280;76049;43.076;25.632;2024-03-17T23:19:57;99618.64;;;11.74;55.01
85623;BME280;76049;43.076;25.632;2024-03-17T23:25:06;99613.13;;;11.62;55.21
85623;BME280;76049;43.076;25.632;2024-03-17T23:30:14;99615.94;;;11.48;55.58
85623;BME280;76049;43.076;25.632;2024-03-17T23:35:22;99609.77;;;11.35;55.76
85623;BME280;76049;43.076;25.632;2024-03-17T23:40:30;99601.67;;;11.20;56.29
85623;BME280;76049;43.076;25.632;2024-03-17T23:45:40;99601.48;;;11.05;56.88
85623;BME280;76049;43.076;25.632;2024-03-17T23:50:48;99594.27;;;10.95;57.12
85623;BME280;76049;43.076;25.632;2024-03-17T23:55:56;99592.14;;;10.89;57.07
